Terminal Aerodrome Forecast
Issued by NWS Pueblo, CO

Home | Current Version | Previous Version | Text Only | Print | Product List | Glossary On
Versions: 1 2 3 4 5 6 7 8 9 10 11 12 13 14 15 16 17 18 19 20 21 22 23 24 25 26 27 28 29 30 31 32 33 34 35 36 37 38 39 40 41 42 43 44
000
FTUS45 KPUB 200520
TAFCOS
TAF
KCOS 200520Z 2006/2106 32015G30KT P6SM VCSH SCT050 BKN100
     FM201100 33010G20KT P6SM SCT090 SCT150
     FM202100 23010KT P6SM SCT150
     FM210300 10007KT P6SM SKC=

USA.gov is the U.S. government's official web portal to all federal, state and local government web resources and services.